Time;durP1;ratioP1;P1;durP2;ratioP2;P2;SDS_P1;SDS_P2;PMS_P1;PMS_P2;Temp;Humidity;BMP_temperature;BMP_pressure;BME280_temperature;BME280_humidity;BME280_pressure;Samples;Min_cycle;Max_cycle;Signal;HPM_P1;HPM_P2
2021/05/29 00:00:27;;;;;;;6.32;2.60;;;;;;;12.60;73.67;100852.28;20433891;28;20476;-71
2021/05/29 00:10:29;;;;;;;6.18;2.72;;;;;;;12.52;74.35;100847.47;20489873;28;20055;-73
2021/05/29 00:20:31;;;;;;;5.35;2.47;;;;;;;12.43;76.28;100848.00;20444081;28;20059;-73
2021/05/29 00:30:32;;;;;;;6.68;2.80;;;;;;;12.26;77.09;100846.28;20458211;28;20043;-73
2021/05/29 00:40:35;;;;;;;6.40;2.60;;;;;;;12.00;79.70;100845.03;20489838;28;20106;-73
2021/05/29 00:50:49;;;;;;;11.60;3.10;;;;;;;12.00;79.69;100839.78;20480130;28;20048;-73
2021/05/29 01:00:52;;;;;;;7.57;3.20;;;;;;;11.74;80.29;100837.69;20413154;28;20128;-71
2021/05/29 01:10:54;;;;;;;6.13;2.80;;;;;;;11.84;77.29;100823.16;20455873;28;20055;-71
2021/05/29 01:20:57;;;;;;;8.77;2.90;;;;;;;11.82;76.97;100829.44;20478572;28;20048;-73
2021/05/29 01:31:03;;;;;;;7.88;3.00;;;;;;;11.70;78.11;100828.25;20408181;28;20117;-71
2021/05/29 01:41:11;;;;;;;8.80;3.00;;;;;;;11.59;78.78;100843.69;20418677;28;20048;-70
2021/05/29 01:51:15;;;;;;;7.55;3.38;;;;;;;11.45;79.05;100854.03;20476840;28;20044;-71
2021/05/29 02:01:17;;;;;;;6.03;3.83;;;;;;;11.34;79.11;100849.34;20480367;28;20101;-70
2021/05/29 02:11:19;;;;;;;8.20;3.60;;;;;;;11.25;79.72;100856.81;20483596;28;20787;-71
2021/05/29 02:21:21;;;;;;;6.00;3.60;;;;;;;11.13;80.02;100853.88;20475068;29;20142;-70
2021/05/29 02:31:24;;;;;;;8.38;3.58;;;;;;;10.98;81.15;100859.84;20509839;28;20054;-73
2021/05/29 02:41:25;;;;;;;6.70;3.60;;;;;;;10.78;82.52;100865.19;20509775;29;20493;-71
2021/05/29 02:51:27;;;;;;;6.28;3.65;;;;;;;10.58;83.83;100871.38;20483647;28;20473;-71
2021/05/29 03:01:29;;;;;;;7.22;3.72;;;;;;;10.50;83.87;100867.44;20505712;28;20043;-71
2021/05/29 03:11:35;;;;;;;8.38;4.18;;;;;;;10.46;84.20;100873.72;20506590;29;20106;-72
2021/05/29 03:21:36;;;;;;;8.90;4.38;;;;;;;10.33;85.51;100890.91;20495452;28;20051;-71
2021/05/29 03:31:38;;;;;;;7.00;4.05;;;;;;;10.22;85.49;100896.59;20436802;28;20052;-70
2021/05/29 03:41:40;;;;;;;9.68;4.22;;;;;;;9.99;86.90;100904.59;20412837;28;20117;-71
2021/05/29 03:51:42;;;;;;;10.05;5.15;;;;;;;9.82;88.52;100923.63;20420109;29;20654;-71
2021/05/29 04:01:44;;;;;;;9.82;4.95;;;;;;;9.65;89.62;100920.91;20439631;28;20059;-71
2021/05/29 04:11:46;;;;;;;10.02;4.68;;;;;;;9.55;90.30;100930.84;20411745;28;20052;-70
2021/05/29 04:21:47;;;;;;;12.23;5.60;;;;;;;9.70;89.39;100932.00;20419494;29;20150;-70
2021/05/29 04:31:49;;;;;;;10.65;5.47;;;;;;;11.17;80.34;100945.44;20773824;23;20403;-77
2021/05/29 04:41:51;;;;;;;12.10;5.47;;;;;;;11.77;77.24;100947.69;20820890;28;20046;-77
2021/05/29 04:51:53;;;;;;;11.00;5.75;;;;;;;10.96;79.78;100953.38;20828014;28;20485;-77
2021/05/29 05:01:55;;;;;;;10.48;5.10;;;;;;;10.53;83.70;100953.66;20901192;28;20087;-77
2021/05/29 05:11:57;;;;;;;9.23;5.05;;;;;;;10.51;82.69;100947.66;20916417;28;20048;-77
2021/05/29 05:21:59;;;;;;;9.35;5.75;;;;;;;10.78;80.61;100953.38;20889065;28;20056;-77
2021/05/29 05:32:01;;;;;;;10.30;4.63;;;;;;;11.10;78.87;100968.44;20889522;28;20067;-77
2021/05/29 05:42:04;;;;;;;6.97;4.53;;;;;;;11.19;78.49;100970.63;20897074;28;20053;-77
2021/05/29 05:52:05;;;;;;;9.85;5.35;;;;;;;11.43;78.18;100979.06;20884917;28;20056;-78
2021/05/29 06:02:08;;;;;;;74.68;10.63;;;;;;;11.65;78.22;100984.97;20848097;28;20041;-77
2021/05/29 06:12:11;;;;;;;7.03;4.32;;;;;;;11.89;76.65;100982.94;20834485;28;20058;-77
2021/05/29 06:22:13;;;;;;;8.82;4.03;;;;;;;12.17;73.85;100998.13;20846621;28;20049;-77
2021/05/29 06:32:18;;;;;;;8.20;3.42;;;;;;;12.60;73.33;101004.63;20887167;28;20061;-77
2021/05/29 06:42:20;;;;;;;5.53;3.22;;;;;;;12.82;72.15;100997.28;20875660;28;20124;-77
2021/05/29 06:52:26;;;;;;;5.78;3.30;;;;;;;13.02;70.71;101014.59;20834257;28;20060;-77
2021/05/29 07:02:28;;;;;;;7.63;2.70;;;;;;;13.38;69.47;101014.38;20888306;28;20044;-76
2021/05/29 07:12:30;;;;;;;29.95;6.13;;;;;;;13.62;68.86;101011.22;20885632;28;20068;-77
2021/05/29 07:22:34;;;;;;;6.45;3.13;;;;;;;14.00;66.81;101009.03;20933792;28;20053;-77
2021/05/29 07:32:38;;;;;;;8.23;2.90;;;;;;;14.24;66.26;101014.63;20910445;28;20491;-77
2021/05/29 07:42:41;;;;;;;5.70;2.83;;;;;;;14.67;64.40;101019.97;20911820;28;20068;-77
2021/05/29 07:52:44;;;;;;;6.85;3.05;;;;;;;14.90;63.90;101017.59;20917800;28;20112;-77
2021/05/29 08:02:46;;;;;;;7.80;3.65;;;;;;;15.09;63.91;101009.38;20874405;28;20068;-77
2021/05/29 08:12:47;;;;;;;5.68;2.72;;;;;;;15.37;60.82;101019.88;20851441;22;20045;-78
2021/05/29 08:22:49;;;;;;;6.10;2.30;;;;;;;15.92;59.00;101016.28;20907176;28;20048;-77
2021/05/29 08:32:52;;;;;;;6.07;2.58;;;;;;;16.16;58.89;101019.91;20912068;28;20056;-77
2021/05/29 08:42:55;;;;;;;7.57;3.72;;;;;;;16.39;58.04;101014.88;20907310;28;20446;-76
2021/05/29 08:52:56;;;;;;;5.03;2.50;;;;;;;16.52;56.14;101023.66;20920922;28;20110;-76
2021/05/29 09:03:10;;;;;;;5.03;2.20;;;;;;;16.82;55.21;101018.91;20974640;28;20048;-76
2021/05/29 09:13:14;;;;;;;4.90;2.33;;;;;;;16.75;53.16;101028.22;20959564;28;20053;-77
2021/05/29 09:23:17;;;;;;;5.63;2.00;;;;;;;17.36;51.70;101013.28;20932917;28;20080;-77
2021/05/29 09:33:22;;;;;;;4.47;2.22;;;;;;;17.61;48.15;101023.81;20929086;28;20060;-76
2021/05/29 09:43:24;;;;;;;3.15;1.73;;;;;;;17.90;46.08;101041.03;20911815;28;20148;-76
2021/05/29 09:53:28;;;;;;;4.10;1.60;;;;;;;17.91;44.33;101036.56;20931578;28;20486;-76
2021/05/29 10:03:46;;;;;;;3.10;1.70;;;;;;;18.32;40.71;101041.41;20921855;28;20049;-76
2021/05/29 10:13:48;;;;;;;3.25;1.30;;;;;;;18.23;41.22;101032.34;20925177;28;20449;-76
2021/05/29 10:23:50;;;;;;;3.38;1.52;;;;;;;18.64;39.54;101036.31;20978772;28;20517;-77
2021/05/29 10:33:52;;;;;;;3.22;1.40;;;;;;;19.21;40.33;101028.19;20922987;28;20049;-77
2021/05/29 10:44:40;;;;;;;3.83;1.40;;;;;;;19.00;37.69;101033.41;20889901;23;20502;-77
2021/05/29 10:55:11;;;;;;;3.10;1.50;;;;;;;19.14;36.88;101024.38;20894580;28;20049;-77
2021/05/29 11:05:32;;;;;;;3.72;1.20;;;;;;;19.67;36.89;101022.69;20927381;28;20041;-77
2021/05/29 11:15:57;;;;;;;4.03;1.27;;;;;;;19.40;36.61;101017.78;20903236;28;20049;-77
2021/05/29 11:26:00;;;;;;;4.93;1.60;;;;;;;19.27;39.42;100998.50;20891449;28;20087;-77
2021/05/29 11:36:01;;;;;;;4.88;1.50;;;;;;;19.58;39.17;100997.72;20920365;28;20649;-77
2021/05/29 11:46:13;;;;;;;2.78;1.52;;;;;;;19.21;39.72;100991.03;20950461;28;20053;-78
2021/05/29 11:56:19;;;;;;;3.45;1.40;;;;;;;19.46;38.68;100993.41;20918802;28;20112;-76
2021/05/29 12:06:38;;;;;;;6.53;2.47;;;;;;;19.69;36.97;100985.38;20916421;28;20056;-77
2021/05/29 12:16:50;;;;;;;3.92;1.10;;;;;;;19.73;34.84;100984.16;20911027;28;20091;-78
2021/05/29 12:27:13;;;;;;;3.10;1.20;;;;;;;18.93;36.61;100983.63;20890925;28;20041;-77
2021/05/29 12:37:23;;;;;;;2.97;0.80;;;;;;;19.72;35.57;100977.13;20916703;28;20041;-77
2021/05/29 12:47:30;;;;;;;1.83;0.90;;;;;;;19.59;34.60;100985.31;20920730;28;20057;-77
2021/05/29 12:57:42;;;;;;;1.90;0.80;;;;;;;19.47;33.27;100976.53;20897902;28;20123;-77
2021/05/29 13:07:45;;;;;;;4.05;1.00;;;;;;;19.74;36.11;100970.75;20915869;28;20098;-78
2021/05/29 13:17:47;;;;;;;1.95;0.85;;;;;;;19.96;31.45;100983.09;20940035;28;20432;-77
2021/05/29 13:27:53;;;;;;;2.15;0.88;;;;;;;19.86;33.10;100966.22;20913156;28;20614;-78
2021/05/29 13:37:56;;;;;;;2.40;0.90;;;;;;;20.30;32.33;100973.06;20933627;28;20048;-77
2021/05/29 13:47:59;;;;;;;4.05;1.00;;;;;;;20.23;32.25;100970.09;20933077;28;20075;-77
2021/05/29 13:58:01;;;;;;;2.97;0.95;;;;;;;20.58;32.22;100966.25;20895782;28;20469;-78
2021/05/29 14:08:03;;;;;;;1.85;0.82;;;;;;;19.46;35.65;100964.22;20901537;28;20465;-78
2021/05/29 14:18:06;;;;;;;1.05;0.70;;;;;;;20.00;32.92;100958.78;20856866;28;20067;-78
2021/05/29 14:28:07;;;;;;;2.47;0.93;;;;;;;19.91;31.34;100964.84;20908369;28;20115;-78
2021/05/29 14:38:09;;;;;;;2.53;0.90;;;;;;;19.88;32.95;100958.94;20933560;28;20041;-77
2021/05/29 14:48:11;;;;;;;1.98;0.93;;;;;;;20.47;31.47;100970.66;20927769;28;20094;-77
2021/05/29 14:58:13;;;;;;;2.47;0.98;;;;;;;20.54;32.01;100971.00;20918570;28;20498;-77
2021/05/29 15:08:15;;;;;;;4.30;0.77;;;;;;;20.54;29.69;100963.00;20897795;28;20048;-80
2021/05/29 15:18:17;;;;;;;2.03;0.90;;;;;;;20.77;30.24;100955.69;20933182;28;20132;-78
2021/05/29 15:28:22;;;;;;;1.48;0.82;;;;;;;20.39;29.47;100965.19;20916524;28;20094;-78
2021/05/29 15:38:25;;;;;;;2.15;0.77;;;;;;;20.38;27.98;100955.50;20927571;28;20041;-76
2021/05/29 15:48:27;;;;;;;2.20;0.93;;;;;;;20.63;30.79;100948.06;20900002;28;20107;-77
2021/05/29 15:58:30;;;;;;;1.75;0.80;;;;;;;20.42;30.89;100967.56;20879392;28;20092;-76
2021/05/29 16:08:32;;;;;;;4.63;1.10;;;;;;;21.04;31.16;100953.22;20814829;28;20096;-76
2021/05/29 16:18:34;;;;;;;3.28;1.20;;;;;;;20.89;29.18;100954.59;20831407;28;20057;-76
2021/05/29 16:28:41;;;;;;;1.67;0.85;;;;;;;20.82;29.61;100950.81;20881551;28;20049;-76
2021/05/29 16:38:44;;;;;;;1.20;0.80;;;;;;;20.62;29.64;100951.72;20910997;28;20037;-76
2021/05/29 16:48:47;;;;;;;1.67;0.80;;;;;;;20.52;29.11;100950.84;20910549;28;20111;-76
2021/05/29 16:58:51;;;;;;;2.70;0.80;;;;;;;20.50;29.35;100956.28;20867121;28;20045;-76
2021/05/29 17:08:53;;;;;;;3.38;0.90;;;;;;;20.34;30.81;100946.13;20909312;28;20140;-76
2021/05/29 17:18:55;;;;;;;2.88;1.10;;;;;;;20.38;31.52;100947.53;20909834;28;20226;-76
2021/05/29 17:28:56;;;;;;;2.28;0.90;;;;;;;20.55;30.79;100950.56;20802274;23;20398;-77
2021/05/29 17:38:58;;;;;;;3.22;1.10;;;;;;;20.06;31.26;100960.06;20897221;28;20045;-76
2021/05/29 17:48:59;;;;;;;8.77;4.07;;;;;;;20.07;31.76;100961.72;20905644;28;20045;-76
2021/05/29 17:59:19;;;;;;;2.13;0.82;;;;;;;20.08;31.45;100964.28;20880646;28;20104;-77
2021/05/29 18:09:20;;;;;;;2.25;1.00;;;;;;;19.69;31.96;100961.47;20822420;28;20458;-77
2021/05/29 18:19:22;;;;;;;1.50;0.88;;;;;;;19.79;32.32;100959.72;20895328;28;20063;-77
2021/05/29 18:29:25;;;;;;;2.88;1.40;;;;;;;19.50;33.84;100960.34;20896362;28;20521;-76
2021/05/29 18:39:27;;;;;;;4.65;1.60;;;;;;;18.94;35.38;100953.47;20902605;28;20045;-76
2021/05/29 18:49:29;;;;;;;3.05;1.70;;;;;;;18.48;36.89;100958.88;20903932;28;20494;-76
2021/05/29 19:09:55;;;;;;;4.40;1.42;;;;;;;17.28;43.75;100968.00;20837283;28;20041;-77
2021/05/29 19:19:56;;;;;;;3.35;1.10;;;;;;;16.79;45.49;100984.75;20946945;28;20100;-77
2021/05/29 19:29:58;;;;;;;3.03;1.30;;;;;;;16.29;44.22;100987.41;20925779;28;20275;-77
2021/05/29 20:31:28;;;;;;;5.05;2.13;;;;;;;14.31;50.53;101037.03;20897484;28;20494;-77
2021/05/29 20:41:29;;;;;;;4.78;2.13;;;;;;;14.07;52.67;101035.81;20913185;28;20041;-77
2021/05/29 20:51:32;;;;;;;4.30;1.85;;;;;;;13.69;54.52;101035.41;20911927;28;20120;-77
2021/05/29 21:01:39;;;;;;;3.30;1.80;;;;;;;13.66;53.99;101039.03;20877514;28;20099;-77
2021/05/29 21:11:41;;;;;;;4.80;2.03;;;;;;;13.56;55.41;101045.75;20827306;28;20543;-77
2021/05/29 21:21:43;;;;;;;5.95;2.03;;;;;;;13.47;55.51;101048.91;20868629;28;20552;-77
2021/05/29 21:31:44;;;;;;;7.03;2.90;;;;;;;13.21;56.87;101052.97;20891958;28;20146;-76
2021/05/29 21:41:46;;;;;;;4.10;2.55;;;;;;;13.14;57.55;101058.66;20880372;28;20041;-76
2021/05/29 21:51:54;;;;;;;4.10;2.30;;;;;;;12.85;60.13;101065.44;20881830;28;20045;-75
2021/05/29 22:01:56;;;;;;;4.47;2.08;;;;;;;12.94;59.96;101075.47;20871157;28;20052;-75
2021/05/29 22:12:06;;;;;;;5.15;2.45;;;;;;;12.53;59.72;101069.75;20873363;28;20467;-76
2021/05/29 22:32:21;;;;;;;4.30;2.00;;;;;;;12.44;60.76;101096.50;20892779;28;20091;-77
2021/05/29 22:42:24;;;;;;;4.35;2.28;;;;;;;12.36;60.07;101103.88;20928129;28;20057;-76
2021/05/29 22:52:26;;;;;;;5.55;2.70;;;;;;;12.33;61.03;101093.56;20930489;28;20049;-76
2021/05/29 23:02:28;;;;;;;6.60;2.20;;;;;;;12.33;61.51;101106.69;20898813;28;20048;-76
2021/05/29 23:12:30;;;;;;;6.32;2.28;;;;;;;12.30;62.87;101106.81;20842824;28;20107;-77
2021/05/29 23:22:32;;;;;;;5.82;2.78;;;;;;;12.20;64.01;101109.06;20887873;28;20098;-76
2021/05/29 23:32:34;;;;;;;5.88;2.50;;;;;;;12.23;63.79;101123.81;20834566;28;20053;-76
2021/05/29 23:42:36;;;;;;;9.55;3.20;;;;;;;12.03;65.51;101122.16;20847562;28;20045;-76
2021/05/29 23:52:38;;;;;;;5.78;2.50;;;;;;;11.88;65.89;101121.13;20825706;28;20060;-76
